Time;durP1;ratioP1;P1;durP2;ratioP2;P2;SDS_P1;SDS_P2;PMS_P1;PMS_P2;Temp;Humidity;BMP_temperature;BMP_pressure;BME280_temperature;BME280_humidity;BME280_pressure;Samples;Min_cycle;Max_cycle;Signal;HPM_P1;HPM_P2
2023/02/02 00:01:54;;;;;;;6.97;1.70;;;9.30;66.10;;;;;;2214736;56;21048;-83
2023/02/02 00:04:28;;;;;;;5.32;1.65;;;9.30;66.10;;;;;;2431851;55;20990;-84
2023/02/02 00:06:57;;;;;;;5.53;1.62;;;9.20;66.10;;;;;;2432312;55;21102;-84
2023/02/02 00:09:27;;;;;;;7.43;2.10;;;9.20;66.10;;;;;;2214977;55;22092;-84
2023/02/02 00:11:53;;;;;;;6.57;1.77;;;9.20;66.10;;;;;;2432326;55;21088;-84
2023/02/02 00:14:20;;;;;;;5.87;1.50;;;9.30;66.30;;;;;;2431954;55;22482;-85
2023/02/02 00:16:50;;;;;;;8.15;2.30;;;9.20;66.20;;;;;;2432229;55;20967;-83
2023/02/02 00:19:21;;;;;;;8.90;1.80;;;9.20;66.20;;;;;;2214950;55;21026;-85
2023/02/02 00:21:48;;;;;;;4.75;1.35;;;9.20;66.30;;;;;;2214658;56;21566;-85
2023/02/02 00:24:16;;;;;;;6.00;1.70;;;9.30;66.40;;;;;;2431972;55;21919;-83
2023/02/02 00:26:43;;;;;;;7.12;1.87;;;9.30;66.40;;;;;;2431884;55;20978;-84
2023/02/02 00:29:20;;;;;;;5.68;1.83;;;9.20;66.40;;;;;;2433261;55;21487;-84
2023/02/02 00:31:46;;;;;;;6.62;1.62;;;9.20;66.40;;;;;;2433873;55;21009;-84
2023/02/02 00:34:13;;;;;;;7.00;2.00;;;9.30;66.50;;;;;;2433870;55;21435;-84
2023/02/02 00:36:39;;;;;;;7.22;1.77;;;9.30;66.50;;;;;;2433486;55;20958;-84
2023/02/02 00:39:06;;;;;;;6.40;2.00;;;9.20;66.40;;;;;;2433857;55;20939;-83
2023/02/02 00:41:32;;;;;;;7.45;1.77;;;9.20;66.40;;;;;;2432880;55;20983;-83
2023/02/02 00:46:43;;;;;;;6.20;1.73;;;9.20;66.40;;;;;;2432001;55;20979;-83
2023/02/02 00:49:09;;;;;;;7.07;1.90;;;9.20;66.40;;;;;;2213982;55;21076;-83
2023/02/02 00:51:36;;;;;;;6.75;1.83;;;9.30;66.50;;;;;;2214431;56;21086;-85
2023/02/02 00:54:02;;;;;;;7.40;1.70;;;9.20;66.40;;;;;;2239258;55;21310;-84
2023/02/02 00:56:29;;;;;;;8.13;1.77;;;9.20;66.40;;;;;;2431992;55;20982;-84
2023/02/02 00:58:55;;;;;;;5.72;1.80;;;9.20;66.40;;;;;;2230990;56;20979;-86
2023/02/02 01:01:21;;;;;;;6.97;1.87;;;9.20;66.40;;;;;;2451231;55;21421;-85
2023/02/02 01:03:48;;;;;;;8.05;1.90;;;9.20;66.20;;;;;;2451500;55;21586;-84
2023/02/02 01:06:14;;;;;;;7.07;2.28;;;9.20;66.50;;;;;;2451340;55;21046;-84
2023/02/02 01:08:41;;;;;;;6.12;1.90;;;9.20;66.50;;;;;;2230613;56;21058;-84
2023/02/02 01:11:07;;;;;;;5.78;1.83;;;9.20;66.50;;;;;;2230688;56;21057;-84
2023/02/02 01:13:33;;;;;;;6.65;1.50;;;9.20;67.00;;;;;;2230526;56;21702;-85
2023/02/02 01:16:00;;;;;;;6.25;1.33;;;9.20;66.50;;;;;;2447374;55;21598;-84
2023/02/02 01:18:27;;;;;;;7.28;1.92;;;9.20;66.50;;;;;;2206496;56;21116;-85
2023/02/02 01:21:00;;;;;;;8.35;1.65;;;9.20;66.50;;;;;;2423902;55;20983;-83
2023/02/02 01:23:27;;;;;;;12.57;2.03;;;9.20;66.40;;;;;;2405503;56;20985;-85
2023/02/02 01:25:57;;;;;;;5.20;1.52;;;9.30;66.60;;;;;;2215863;56;20957;-84
2023/02/02 01:28:23;;;;;;;7.78;1.95;;;9.30;66.70;;;;;;2434222;55;20925;-84
2023/02/02 01:30:49;;;;;;;5.70;1.67;;;9.30;66.80;;;;;;2214504;56;21954;-85
2023/02/02 01:33:16;;;;;;;8.13;1.95;;;9.30;66.60;;;;;;2213887;56;21021;-84
2023/02/02 01:35:54;;;;;;;7.22;1.52;;;9.30;66.60;;;;;;2431220;55;21061;-83
2023/02/02 01:38:20;;;;;;;3.47;1.48;;;9.30;66.40;;;;;;2214170;56;20957;-84
2023/02/02 01:40:56;;;;;;;5.57;1.73;;;9.30;66.60;;;;;;2432696;55;21009;-83
2023/02/02 01:43:49;;;;;;;7.82;1.92;;;9.30;66.40;;;;;;2430983;55;21292;-84
2023/02/02 01:46:17;;;;;;;7.18;1.70;;;9.30;66.40;;;;;;2213796;56;20985;-83
2023/02/02 01:49:18;;;;;;;6.15;1.80;;;9.30;66.40;;;;;;2213651;56;21048;-83
2023/02/02 01:52:06;;;;;;;4.05;1.58;;;9.30;66.40;;;;;;2431711;55;20997;-84
2023/02/02 01:54:36;;;;;;;5.18;1.35;;;9.30;66.40;;;;;;2213840;56;21132;-85
2023/02/02 01:57:05;;;;;;;10.27;1.80;;;9.30;66.40;;;;;;2431321;55;20961;-84
2023/02/02 01:59:32;;;;;;;5.72;1.48;;;9.30;66.40;;;;;;2213946;56;21025;-84
2023/02/02 02:01:58;;;;;;;5.40;2.25;;;9.20;66.30;;;;;;2214601;56;21004;-84
2023/02/02 02:04:24;;;;;;;7.05;1.70;;;9.20;66.30;;;;;;2213488;56;20989;-85
2023/02/02 02:06:52;;;;;;;6.32;1.65;;;9.20;66.30;;;;;;2431618;55;21008;-82
2023/02/02 02:09:19;;;;;;;6.15;1.62;;;9.20;66.30;;;;;;2433442;55;21013;-82
2023/02/02 02:11:45;;;;;;;4.45;1.20;;;9.20;66.30;;;;;;2215953;56;20926;-83
2023/02/02 02:17:50;;;;;;;5.40;1.62;;;9.20;66.40;;;;;;2214311;56;20945;-86
2023/02/02 02:27:34;;;;;;;3.70;1.35;;;9.20;66.10;;;;;;2433098;55;20977;-83
2023/02/02 02:30:58;;;;;;;5.50;1.30;;;9.20;65.80;;;;;;2423582;56;21765;-83
2023/02/02 02:33:44;;;;;;;4.57;1.33;;;9.20;65.90;;;;;;2431468;55;20938;-85
2023/02/02 02:36:18;;;;;;;5.22;1.75;;;9.20;66.40;;;;;;2431432;55;20957;-83
2023/02/02 02:38:50;;;;;;;5.90;1.90;;;9.10;66.20;;;;;;2431415;55;21085;-84
2023/02/02 02:41:20;;;;;;;8.85;1.52;;;9.10;66.40;;;;;;2431799;55;21071;-84
2023/02/02 02:44:02;;;;;;;6.20;1.58;;;9.10;66.40;;;;;;2430951;55;20989;-84
2023/02/02 02:46:29;;;;;;;5.27;1.20;;;9.10;66.50;;;;;;2430451;55;21001;-85
2023/02/02 02:48:57;;;;;;;6.18;1.75;;;9.10;66.60;;;;;;2212763;56;21201;-84
2023/02/02 02:51:42;;;;;;;5.60;1.92;;;9.10;66.60;;;;;;2429537;55;21045;-85
2023/02/02 02:54:09;;;;;;;3.17;1.20;;;9.10;66.30;;;;;;2429973;55;21033;-85
2023/02/02 02:56:42;;;;;;;6.18;1.45;;;9.10;66.60;;;;;;2211940;56;21899;-83
2023/02/02 03:00:43;;;;;;;5.37;1.40;;;9.10;66.50;;;;;;2233149;56;21062;-85
2023/02/02 03:04:40;;;;;;;5.62;1.50;;;9.10;66.40;;;;;;2213052;56;21005;-84
2023/02/02 03:07:17;;;;;;;3.70;1.20;;;9.10;66.30;;;;;;2429949;55;21076;-84
2023/02/02 03:09:44;;;;;;;6.62;1.30;;;9.10;66.40;;;;;;2429898;55;21057;-84
2023/02/02 03:12:10;;;;;;;4.78;1.20;;;9.10;66.50;;;;;;2430035;55;21014;-84
2023/02/02 03:14:38;;;;;;;3.00;1.25;;;9.10;66.50;;;;;;2429638;55;21089;-83
2023/02/02 03:17:04;;;;;;;6.82;1.50;;;9.10;66.50;;;;;;2431277;55;21371;-84
2023/02/02 03:19:30;;;;;;;4.03;1.17;;;9.00;66.50;;;;;;2431483;55;20953;-85
2023/02/02 03:21:57;;;;;;;6.55;1.37;;;9.10;66.60;;;;;;2214049;56;21333;-84
2023/02/02 03:24:23;;;;;;;5.10;1.35;;;9.10;66.70;;;;;;2430675;55;21025;-84
2023/02/02 03:26:49;;;;;;;5.20;1.48;;;9.10;66.60;;;;;;2431002;55;20965;-83
2023/02/02 03:29:16;;;;;;;4.53;1.80;;;9.10;66.60;;;;;;2213308;56;21913;-85
2023/02/02 03:31:42;;;;;;;5.97;1.50;;;9.00;66.50;;;;;;2213575;56;20973;-83
2023/02/02 03:34:08;;;;;;;6.47;1.40;;;9.00;66.50;;;;;;2213648;56;20990;-83
2023/02/02 03:36:34;;;;;;;4.40;1.60;;;9.00;66.50;;;;;;2213913;56;20981;-86
2023/02/02 03:39:01;;;;;;;3.90;1.58;;;9.10;66.60;;;;;;2431202;55;20973;-85
2023/02/02 03:41:28;;;;;;;3.67;1.27;;;9.00;66.60;;;;;;2431517;55;21001;-84
2023/02/02 03:43:54;;;;;;;3.83;1.23;;;9.00;66.60;;;;;;2431232;55;21084;-84
2023/02/02 03:46:20;;;;;;;6.15;1.70;;;9.00;67.10;;;;;;2430837;55;20989;-84
2023/02/02 03:48:46;;;;;;;5.35;1.35;;;9.00;67.30;;;;;;2431005;55;21942;-84
2023/02/02 03:51:13;;;;;;;4.90;1.52;;;9.00;66.60;;;;;;2431379;55;20977;-85
2023/02/02 03:53:43;;;;;;;5.50;1.40;;;9.00;66.60;;;;;;2431086;55;21520;-84
2023/02/02 03:56:09;;;;;;;6.10;1.45;;;9.00;66.60;;;;;;2433314;55;20968;-82
2023/02/02 03:58:36;;;;;;;4.10;1.12;;;9.00;66.60;;;;;;2434017;55;20994;-84
2023/02/02 04:01:07;;;;;;;5.40;1.75;;;9.00;66.60;;;;;;2433701;55;21841;-83
2023/02/02 04:03:33;;;;;;;5.05;1.30;;;9.00;66.60;;;;;;2434166;55;20945;-84
2023/02/02 04:06:00;;;;;;;3.90;1.67;;;9.00;66.60;;;;;;2431371;55;20981;-84
2023/02/02 04:08:27;;;;;;;6.47;1.58;;;9.00;66.60;;;;;;2431428;55;21100;-85
2023/02/02 04:10:53;;;;;;;7.10;1.42;;;9.00;66.60;;;;;;2213820;56;20991;-84
2023/02/02 04:13:19;;;;;;;5.85;1.70;;;9.00;66.60;;;;;;2431546;55;21636;-84
2023/02/02 04:15:46;;;;;;;6.28;1.60;;;9.00;66.70;;;;;;2430936;55;21025;-84
2023/02/02 04:18:12;;;;;;;4.40;1.20;;;9.00;66.80;;;;;;2213702;56;20993;-82
2023/02/02 04:20:38;;;;;;;5.90;1.60;;;9.00;66.70;;;;;;2213801;56;20957;-84
2023/02/02 04:23:05;;;;;;;3.90;1.50;;;9.00;66.70;;;;;;2431493;55;20997;-84
2023/02/02 04:25:31;;;;;;;5.07;1.70;;;9.00;66.80;;;;;;2430970;55;21036;-83
2023/02/02 04:27:57;;;;;;;6.40;1.73;;;9.00;66.80;;;;;;2430948;55;20976;-84
2023/02/02 04:30:24;;;;;;;7.55;1.50;;;9.00;66.80;;;;;;2430759;55;21787;-83
2023/02/02 04:32:50;;;;;;;6.62;2.00;;;9.00;66.80;;;;;;2430159;55;21085;-84
2023/02/02 04:35:16;;;;;;;3.45;1.35;;;9.00;66.80;;;;;;2228327;56;21086;-83
2023/02/02 04:37:43;;;;;;;7.25;1.87;;;9.00;66.80;;;;;;2424793;55;21096;-82
2023/02/02 04:40:10;;;;;;;5.87;1.90;;;9.00;66.70;;;;;;2202994;56;20965;-83
2023/02/02 04:42:36;;;;;;;7.82;2.15;;;9.00;66.70;;;;;;2204349;56;21024;-84
2023/02/02 04:45:03;;;;;;;6.03;1.70;;;9.00;66.60;;;;;;2419365;55;21009;-83
2023/02/02 04:47:29;;;;;;;10.13;2.10;;;9.00;66.60;;;;;;2418793;55;21055;-83
2023/02/02 04:49:56;;;;;;;6.18;2.08;;;9.00;66.60;;;;;;2418348;55;21589;-83
2023/02/02 04:52:22;;;;;;;7.20;2.20;;;9.00;66.60;;;;;;2415354;55;21024;-85
2023/02/02 04:54:49;;;;;;;7.40;2.03;;;9.00;66.60;;;;;;2414528;55;20977;-84
2023/02/02 04:57:16;;;;;;;4.95;1.80;;;9.00;66.60;;;;;;2199103;56;21005;-83
2023/02/02 04:59:42;;;;;;;8.20;1.75;;;9.00;66.70;;;;;;2413711;55;22139;-83
2023/02/02 05:02:09;;;;;;;5.20;1.50;;;9.10;66.80;;;;;;2416413;55;21028;-83
2023/02/02 05:04:35;;;;;;;8.70;2.03;;;9.00;66.70;;;;;;2414396;55;21061;-83
2023/02/02 05:07:01;;;;;;;7.12;1.80;;;9.00;66.60;;;;;;2198497;56;21029;-82
2023/02/02 05:09:28;;;;;;;6.80;1.80;;;9.00;66.70;;;;;;2413149;55;21600;-83
2023/02/02 05:11:54;;;;;;;6.12;1.90;;;9.00;66.70;;;;;;2414099;55;21018;-83
2023/02/02 05:14:21;;;;;;;9.55;2.47;;;9.00;66.70;;;;;;2415566;55;20953;-83
2023/02/02 05:16:48;;;;;;;7.45;2.35;;;9.00;66.70;;;;;;2414741;55;22212;-82
2023/02/02 05:19:15;;;;;;;5.37;1.62;;;9.10;66.60;;;;;;2415425;55;20985;-83
2023/02/02 05:21:43;;;;;;;7.32;2.20;;;9.00;66.60;;;;;;2414469;55;21100;-83
2023/02/02 05:24:10;;;;;;;4.07;1.92;;;9.00;66.70;;;;;;2198760;56;22152;-84
2023/02/02 05:26:36;;;;;;;5.85;2.03;;;9.00;66.70;;;;;;2199310;56;21036;-84
2023/02/02 05:29:03;;;;;;;5.12;1.62;;;9.00;66.70;;;;;;2199942;56;22126;-83
2023/02/02 05:31:30;;;;;;;5.28;1.95;;;9.10;66.80;;;;;;2414453;55;21002;-83
2023/02/02 05:33:57;;;;;;;7.12;2.60;;;9.10;66.80;;;;;;2428996;55;21011;-83
2023/02/02 05:36:24;;;;;;;9.77;1.90;;;9.10;66.80;;;;;;2207242;56;21823;-83
2023/02/02 05:38:50;;;;;;;7.32;1.90;;;9.10;66.80;;;;;;2198102;56;20965;-82
2023/02/02 05:41:16;;;;;;;4.53;1.73;;;9.10;66.80;;;;;;2414197;55;20994;-84
2023/02/02 05:43:42;;;;;;;5.62;1.70;;;9.10;66.80;;;;;;2414525;55;21080;-83
2023/02/02 05:46:09;;;;;;;6.60;2.10;;;9.10;66.80;;;;;;2414499;55;21059;-82
2023/02/02 05:48:35;;;;;;;5.03;1.65;;;9.10;66.80;;;;;;2414275;55;20984;-83
2023/02/02 05:51:17;;;;;;;5.60;2.17;;;9.10;66.80;;;;;;2414496;55;20961;-83
2023/02/02 05:53:43;;;;;;;5.70;1.95;;;9.10;66.70;;;;;;2413573;55;21018;-83
2023/02/02 05:56:10;;;;;;;8.48;2.10;;;9.10;66.70;;;;;;2414229;55;22152;-83
2023/02/02 05:58:41;;;;;;;5.35;1.80;;;9.10;66.70;;;;;;2414277;55;20989;-84
2023/02/02 06:01:08;;;;;;;11.23;2.10;;;9.10;66.60;;;;;;2413920;55;21077;-84
2023/02/02 06:03:35;;;;;;;6.37;1.92;;;9.10;66.70;;;;;;2414063;55;21033;-83
2023/02/02 06:06:01;;;;;;;5.68;1.85;;;9.10;66.70;;;;;;2413909;55;21001;-84
2023/02/02 06:08:27;;;;;;;5.55;2.12;;;9.00;66.60;;;;;;2198752;56;21104;-83
2023/02/02 06:10:53;;;;;;;4.85;1.80;;;9.10;66.70;;;;;;2414618;55;22017;-83
2023/02/02 06:13:20;;;;;;;7.05;2.22;;;9.10;67.40;;;;;;2414110;55;22050;-84
2023/02/02 06:15:47;;;;;;;6.87;1.95;;;9.20;66.80;;;;;;2197819;56;21049;-83
2023/02/02 06:18:13;;;;;;;6.15;1.83;;;9.20;66.80;;;;;;2199042;56;20977;-83
2023/02/02 06:20:39;;;;;;;5.60;2.35;;;9.10;66.70;;;;;;2413583;55;22018;-83
2023/02/02 06:23:06;;;;;;;4.37;2.03;;;9.20;66.80;;;;;;2197918;56;20976;-83
2023/02/02 06:25:33;;;;;;;6.97;2.22;;;9.10;66.80;;;;;;2198165;56;22275;-83
2023/02/02 06:27:59;;;;;;;7.53;2.03;;;9.10;66.70;;;;;;2414117;55;21069;-82
2023/02/02 06:30:26;;;;;;;6.30;2.20;;;9.10;66.70;;;;;;2198154;56;21008;-84
2023/02/02 06:32:52;;;;;;;6.80;2.20;;;9.20;66.80;;;;;;2414289;55;21005;-82
2023/02/02 06:35:19;;;;;;;5.72;2.22;;;9.20;66.80;;;;;;2201977;56;20989;-82
2023/02/02 06:37:45;;;;;;;5.78;2.30;;;9.10;66.70;;;;;;2437430;55;21006;-83
2023/02/02 06:40:12;;;;;;;9.55;2.45;;;9.20;66.80;;;;;;2413846;55;21388;-83
2023/02/02 06:42:39;;;;;;;6.20;1.95;;;9.20;66.80;;;;;;2414483;55;21011;-82
2023/02/02 06:45:06;;;;;;;6.60;1.83;;;9.20;66.80;;;;;;2413288;55;21037;-82
2023/02/02 06:47:33;;;;;;;7.03;1.90;;;9.20;66.90;;;;;;2199388;56;20957;-84
2023/02/02 06:49:59;;;;;;;7.35;2.12;;;9.20;66.80;;;;;;2413828;55;21025;-82
2023/02/02 06:52:26;;;;;;;8.05;2.22;;;9.20;66.90;;;;;;2414607;55;21009;-83
2023/02/02 06:54:52;;;;;;;8.25;2.80;;;9.20;66.80;;;;;;2413771;55;21022;-83
2023/02/02 06:57:18;;;;;;;7.55;2.30;;;9.20;67.50;;;;;;2198663;56;21072;-83
2023/02/02 06:59:46;;;;;;;10.88;2.47;;;9.20;66.80;;;;;;2414246;55;20961;-83
2023/02/02 07:02:12;;;;;;;7.55;2.10;;;9.10;66.60;;;;;;2414974;55;20968;-84
2023/02/02 07:04:39;;;;;;;8.02;2.28;;;9.30;66.80;;;;;;2415837;55;21076;-83
2023/02/02 07:07:05;;;;;;;9.32;2.28;;;9.20;66.70;;;;;;2414293;55;20973;-82
2023/02/02 07:09:34;;;;;;;16.02;2.85;;;9.30;66.70;;;;;;2415591;55;21037;-83
2023/02/02 07:12:01;;;;;;;7.30;2.78;;;9.30;66.70;;;;;;2415328;55;21054;-84
2023/02/02 07:14:27;;;;;;;8.23;2.42;;;9.20;66.80;;;;;;2223938;56;20994;-82
2023/02/02 07:16:53;;;;;;;7.50;2.00;;;9.20;66.70;;;;;;2414872;55;20957;-83
2023/02/02 07:19:19;;;;;;;9.20;2.58;;;9.30;66.80;;;;;;2415222;55;21268;-83
2023/02/02 07:21:46;;;;;;;4.47;2.03;;;9.30;66.80;;;;;;2415307;55;20946;-83
2023/02/02 07:24:12;;;;;;;5.72;2.47;;;9.30;66.80;;;;;;2200097;56;21077;-83
2023/02/02 07:26:38;;;;;;;6.85;2.12;;;9.30;66.80;;;;;;2199645;56;21158;-83
2023/02/02 07:29:05;;;;;;;7.43;2.05;;;9.30;66.90;;;;;;2414919;55;20990;-83
2023/02/02 07:31:32;;;;;;;6.87;2.47;;;9.30;66.80;;;;;;2200580;56;21080;-83
2023/02/02 07:34:01;;;;;;;8.88;2.47;;;9.30;66.80;;;;;;2198874;56;21088;-83
2023/02/02 07:36:28;;;;;;;5.72;2.20;;;9.30;66.80;;;;;;2199661;56;20968;-83
2023/02/02 07:38:56;;;;;;;10.52;3.30;;;9.30;66.80;;;;;;2416020;55;21088;-84
2023/02/02 07:41:22;;;;;;;8.65;2.78;;;9.30;66.80;;;;;;2199826;56;21096;-83
2023/02/02 07:43:48;;;;;;;5.95;2.83;;;9.30;66.80;;;;;;2416130;55;21001;-83
2023/02/02 07:46:15;;;;;;;7.32;2.97;;;9.30;66.90;;;;;;2415873;55;22103;-83
2023/02/02 07:48:41;;;;;;;9.75;2.72;;;9.30;66.90;;;;;;2417173;55;20973;-84
2023/02/02 07:51:12;;;;;;;8.68;3.08;;;9.30;66.90;;;;;;2417750;55;20989;-83
2023/02/02 07:53:43;;;;;;;7.90;2.92;;;9.30;66.90;;;;;;2417527;55;22398;-84
2023/02/02 07:56:14;;;;;;;6.65;2.55;;;9.30;66.80;;;;;;2415412;55;21216;-82
2023/02/02 07:58:41;;;;;;;6.45;2.42;;;9.40;66.90;;;;;;2418012;55;21072;-83
2023/02/02 08:01:08;;;;;;;4.72;2.03;;;9.30;66.80;;;;;;2418236;55;21527;-82
2023/02/02 08:03:35;;;;;;;8.10;2.22;;;9.40;66.90;;;;;;2418946;55;21391;-83
2023/02/02 08:06:30;;;;;;;8.63;2.12;;;9.40;66.80;;;;;;2417263;55;20957;-82
2023/02/02 08:08:56;;;;;;;7.70;2.12;;;9.40;66.70;;;;;;2417791;55;21049;-83
2023/02/02 08:11:23;;;;;;;7.30;1.87;;;9.30;66.80;;;;;;2418559;55;21106;-84
2023/02/02 08:13:51;;;;;;;5.78;2.20;;;9.40;66.90;;;;;;2416620;55;21565;-84
2023/02/02 08:16:17;;;;;;;6.97;2.00;;;9.40;66.90;;;;;;2416579;55;22173;-83
2023/02/02 08:18:43;;;;;;;8.55;2.30;;;9.40;66.90;;;;;;2415767;55;21310;-83
2023/02/02 08:21:10;;;;;;;11.75;2.50;;;9.40;66.90;;;;;;2414884;55;21057;-83
2023/02/02 08:23:37;;;;;;;3.67;1.83;;;9.40;66.90;;;;;;2202597;56;21790;-82
2023/02/02 08:26:14;;;;;;;6.70;1.85;;;9.40;66.90;;;;;;2416527;55;20977;-83
2023/02/02 08:28:41;;;;;;;8.48;2.25;;;9.40;66.70;;;;;;2200253;56;20953;-83
2023/02/02 08:31:16;;;;;;;8.80;2.45;;;9.50;66.90;;;;;;2415681;55;20973;-83
2023/02/02 08:33:42;;;;;;;7.50;2.25;;;9.50;66.80;;;;;;2415022;55;20970;-82
2023/02/02 08:36:12;;;;;;;8.15;2.28;;;9.50;66.90;;;;;;2198289;56;21080;-83
2023/02/02 08:38:39;;;;;;;6.87;2.03;;;9.50;66.90;;;;;;2414984;55;20993;-82
2023/02/02 08:41:06;;;;;;;9.85;2.55;;;9.50;66.90;;;;;;2204332;56;20992;-83
2023/02/02 08:43:32;;;;;;;6.55;2.25;;;9.50;67.00;;;;;;2416962;55;20977;-82
2023/02/02 08:45:58;;;;;;;8.02;2.10;;;9.50;66.90;;;;;;2439624;55;21087;-82
2023/02/02 08:48:30;;;;;;;8.75;1.77;;;9.60;67.00;;;;;;2415170;55;20966;-82
2023/02/02 08:50:57;;;;;;;7.20;2.08;;;9.60;67.00;;;;;;2414525;55;20981;-83
2023/02/02 08:53:24;;;;;;;8.43;2.35;;;9.60;67.10;;;;;;2415283;55;21146;-84
2023/02/02 08:56:00;;;;;;;9.07;2.30;;;9.60;67.10;;;;;;2200292;56;21053;-84
2023/02/02 08:58:27;;;;;;;8.30;2.33;;;9.70;66.90;;;;;;2201946;56;21124;-83
2023/02/02 09:00:53;;;;;;;6.07;2.30;;;9.70;67.00;;;;;;2415673;55;21060;-82
2023/02/02 09:03:19;;;;;;;8.98;2.12;;;9.70;66.90;;;;;;2416033;55;21077;-83
2023/02/02 09:05:46;;;;;;;7.78;1.98;;;9.80;67.00;;;;;;2416798;55;22108;-83
2023/02/02 09:08:12;;;;;;;7.45;2.20;;;9.80;67.00;;;;;;2419322;55;20965;-83
2023/02/02 09:10:38;;;;;;;9.68;2.20;;;9.80;66.90;;;;;;2417364;55;20972;-83
2023/02/02 09:13:05;;;;;;;5.53;1.95;;;9.80;67.00;;;;;;2416452;55;22192;-83
2023/02/02 09:15:31;;;;;;;13.40;2.47;;;9.90;67.10;;;;;;2414426;55;21084;-83
2023/02/02 09:17:58;;;;;;;6.80;2.10;;;9.90;67.10;;;;;;2210377;56;21114;-83
2023/02/02 09:20:24;;;;;;;7.37;2.17;;;9.90;67.10;;;;;;2431179;55;21044;-83
2023/02/02 09:22:53;;;;;;;8.30;2.55;;;10.00;66.00;;;;;;2199052;56;21060;-83
2023/02/02 09:25:20;;;;;;;8.40;3.15;;;10.00;66.00;;;;;;2414379;55;21288;-83
2023/02/02 09:27:50;;;;;;;9.38;3.35;;;10.00;65.90;;;;;;2199145;56;21010;-83
2023/02/02 09:30:16;;;;;;;7.15;2.65;;;10.00;65.90;;;;;;2414506;55;21634;-82
2023/02/02 09:32:44;;;;;;;7.07;3.00;;;10.10;65.90;;;;;;2414602;55;21547;-81
2023/02/02 09:35:10;;;;;;;9.30;3.12;;;10.10;66.00;;;;;;2413160;55;21016;-82
2023/02/02 09:37:36;;;;;;;7.60;2.80;;;10.10;65.90;;;;;;2415180;55;20965;-82
2023/02/02 09:40:03;;;;;;;10.07;2.65;;;10.10;65.80;;;;;;2414851;55;22082;-82
2023/02/02 09:43:04;;;;;;;7.72;2.60;;;10.20;65.90;;;;;;2414778;55;21060;-83
2023/02/02 09:45:58;;;;;;;6.50;2.58;;;10.20;65.60;;;;;;2415378;55;21068;-83
2023/02/02 09:49:00;;;;;;;6.10;2.30;;;10.20;65.30;;;;;;2417008;55;21053;-84
2023/02/02 09:51:29;;;;;;;8.68;2.30;;;10.30;65.20;;;;;;2416349;55;21109;-83
2023/02/02 09:53:59;;;;;;;11.38;2.67;;;10.20;65.70;;;;;;2417481;55;20977;-83
2023/02/02 09:56:37;;;;;;;8.10;2.58;;;10.30;65.70;;;;;;2417978;55;21731;-82
2023/02/02 09:59:04;;;;;;;7.45;2.50;;;10.30;65.40;;;;;;2418629;55;21008;-83
2023/02/02 10:01:44;;;;;;;5.75;2.30;;;10.30;65.60;;;;;;2416267;55;21009;-84
2023/02/02 10:04:45;;;;;;;5.97;2.08;;;10.30;65.70;;;;;;2421093;55;21204;-83
2023/02/02 10:07:55;;;;;;;6.07;2.20;;;10.30;65.20;;;;;;2429356;55;22335;-82
2023/02/02 10:10:25;;;;;;;5.40;2.10;;;10.30;65.10;;;;;;2415589;55;20994;-83
2023/02/02 10:13:36;;;;;;;5.60;2.10;;;10.30;65.70;;;;;;2199624;56;21079;-84
2023/02/02 10:16:15;;;;;;;5.65;2.03;;;10.40;65.20;;;;;;2223167;56;20947;-85
2023/02/02 10:18:54;;;;;;;9.15;2.33;;;10.40;65.60;;;;;;2199928;56;21053;-84
2023/02/02 10:25:03;;;;;;;7.45;2.00;;;10.40;65.60;;;;;;2415066;55;22186;-85
2023/02/02 10:27:37;;;;;;;6.43;1.77;;;10.40;65.70;;;;;;2415293;55;22169;-84
2023/02/02 10:30:14;;;;;;;6.20;1.70;;;10.40;65.60;;;;;;2415106;55;21010;-84
2023/02/02 10:32:50;;;;;;;6.50;1.67;;;10.40;65.70;;;;;;2415726;55;21037;-85
2023/02/02 10:35:29;;;;;;;6.10;1.83;;;10.50;65.80;;;;;;2198759;56;21064;-84
2023/02/02 10:38:32;;;;;;;6.30;1.85;;;10.40;65.80;;;;;;2416210;55;20969;-84
2023/02/02 10:41:18;;;;;;;6.53;1.67;;;10.50;65.50;;;;;;2415421;55;20969;-84
2023/02/02 10:44:15;;;;;;;5.30;2.17;;;10.50;65.80;;;;;;2416015;55;21293;-84
2023/02/02 10:46:44;;;;;;;6.25;2.25;;;10.50;65.40;;;;;;2416463;55;22523;-84
2023/02/02 10:49:35;;;;;;;5.53;2.00;;;10.50;65.90;;;;;;2414861;55;21021;-84
2023/02/02 10:53:02;;;;;;;7.35;1.83;;;10.60;65.90;;;;;;2419706;55;21021;-84
2023/02/02 10:55:52;;;;;;;8.43;2.10;;;10.60;65.20;;;;;;2421220;55;20965;-83
2023/02/02 10:58:29;;;;;;;4.93;1.62;;;10.60;65.50;;;;;;2423012;55;21383;-84
2023/02/02 11:00:57;;;;;;;8.18;1.90;;;10.60;65.60;;;;;;2424393;55;21104;-84
2023/02/02 11:03:26;;;;;;;5.95;2.00;;;10.60;65.90;;;;;;2446177;55;21026;-84
2023/02/02 11:08:42;;;;;;;8.52;1.52;;;10.60;65.90;;;;;;2422047;55;21014;-86
2023/02/02 11:11:39;;;;;;;6.22;2.25;;;10.60;65.80;;;;;;2420518;55;21061;-83
2023/02/02 11:15:07;;;;;;;4.07;1.40;;;10.70;65.80;;;;;;2206171;56;20980;-82
2023/02/02 11:17:33;;;;;;;5.35;1.55;;;10.70;65.40;;;;;;2436014;55;20990;-84
2023/02/02 11:20:00;;;;;;;6.68;2.20;;;10.70;66.00;;;;;;2425275;55;21500;-84
2023/02/02 11:22:37;;;;;;;6.30;2.25;;;10.70;66.10;;;;;;2415501;55;20956;-84
2023/02/02 11:25:05;;;;;;;7.57;2.40;;;10.80;65.80;;;;;;2414909;55;21022;-83
2023/02/02 11:27:42;;;;;;;4.55;2.00;;;10.70;66.10;;;;;;2416148;55;21479;-84
2023/02/02 11:30:34;;;;;;;7.87;2.00;;;10.70;65.90;;;;;;2415876;55;21005;-83
2023/02/02 11:33:34;;;;;;;5.37;1.83;;;10.80;65.70;;;;;;2416076;55;21005;-84
2023/02/02 11:36:22;;;;;;;4.93;1.58;;;10.80;65.60;;;;;;2415210;55;20953;-82
2023/02/02 11:38:54;;;;;;;5.68;2.00;;;10.80;65.90;;;;;;2200215;56;21044;-84
2023/02/02 11:41:22;;;;;;;5.22;1.75;;;10.90;66.00;;;;;;2200070;56;21135;-83
2023/02/02 11:43:52;;;;;;;8.85;2.15;;;10.80;65.80;;;;;;2201093;56;21013;-83
2023/02/02 11:46:24;;;;;;;7.70;2.08;;;10.90;65.90;;;;;;2416249;55;21061;-83
2023/02/02 11:49:13;;;;;;;7.90;2.50;;;10.90;65.90;;;;;;2417222;55;21060;-84
2023/02/02 11:51:39;;;;;;;4.70;1.65;;;10.90;65.60;;;;;;2417645;55;20973;-83
2023/02/02 11:54:16;;;;;;;5.85;2.00;;;10.90;65.90;;;;;;2200377;56;21084;-83
2023/02/02 11:56:47;;;;;;;5.80;2.10;;;10.90;65.80;;;;;;2418590;55;21033;-83
2023/02/02 11:59:35;;;;;;;5.22;1.92;;;11.00;65.90;;;;;;2417984;55;20997;-84
2023/02/02 12:02:24;;;;;;;7.15;2.03;;;11.00;65.70;;;;;;2203032;56;21488;-84
2023/02/02 12:05:11;;;;;;;4.85;1.85;;;11.00;65.60;;;;;;2411929;56;21022;-85
2023/02/02 12:07:38;;;;;;;5.80;2.28;;;11.00;65.90;;;;;;2419764;55;21014;-85
2023/02/02 12:10:26;;;;;;;8.07;2.47;;;11.00;65.80;;;;;;2203139;56;21013;-83
2023/02/02 12:13:03;;;;;;;3.78;1.70;;;11.10;65.50;;;;;;2421106;55;21287;-84
2023/02/02 12:17:37;;;;;;;6.03;2.15;;;11.10;65.70;;;;;;2421068;55;20976;-83
2023/02/02 12:20:33;;;;;;;5.78;1.92;;;11.10;65.00;;;;;;2419643;55;21615;-83
2023/02/02 12:24:32;;;;;;;6.80;2.67;;;11.10;65.50;;;;;;2417788;55;20941;-84
2023/02/02 12:27:39;;;;;;;7.40;1.77;;;11.10;64.80;;;;;;2202871;56;21033;-82
2023/02/02 12:31:46;;;;;;;7.65;2.33;;;11.10;65.10;;;;;;2420737;55;21021;-83
2023/02/02 12:36:08;;;;;;;7.85;2.17;;;11.10;65.20;;;;;;2419974;55;21378;-83
2023/02/02 12:39:17;;;;;;;6.80;2.30;;;11.10;64.90;;;;;;2419118;55;21038;-84
2023/02/02 12:42:06;;;;;;;8.20;2.30;;;11.10;65.10;;;;;;2418234;55;21136;-83
2023/02/02 12:45:42;;;;;;;6.85;2.42;;;11.00;65.00;;;;;;2422428;55;21053;-83
2023/02/02 12:55:50;;;;;;;5.07;2.10;;;11.00;64.70;;;;;;2234392;56;20982;-84
2023/02/02 12:58:51;;;;;;;7.25;2.08;;;11.00;65.00;;;;;;2423717;55;21024;-84
2023/02/02 13:01:51;;;;;;;7.72;2.35;;;11.00;65.40;;;;;;2203431;56;20961;-83
2023/02/02 13:04:37;;;;;;;7.00;2.30;;;11.00;65.20;;;;;;2418950;55;22271;-82
2023/02/02 13:07:19;;;;;;;6.47;2.10;;;11.00;65.30;;;;;;2227341;56;21407;-83
2023/02/02 13:10:08;;;;;;;5.40;1.92;;;11.00;65.40;;;;;;2420058;55;20985;-84
2023/02/02 13:12:44;;;;;;;8.48;2.90;;;11.00;65.40;;;;;;2422812;55;20977;-83
2023/02/02 13:15:19;;;;;;;7.22;2.75;;;11.00;65.80;;;;;;2208168;56;20934;-83
2023/02/02 13:17:56;;;;;;;9.10;2.62;;;11.00;65.70;;;;;;2424984;55;20969;-83
2023/02/02 13:20:42;;;;;;;8.10;2.55;;;11.00;65.70;;;;;;2205800;56;20984;-83
2023/02/02 13:23:29;;;;;;;6.37;2.10;;;11.00;65.70;;;;;;2420724;55;20957;-83
2023/02/02 13:26:20;;;;;;;6.40;2.12;;;11.00;66.00;;;;;;2442276;55;21891;-82
2023/02/02 13:28:54;;;;;;;7.75;2.35;;;11.00;65.90;;;;;;2440929;55;21002;-82
2023/02/02 13:32:55;;;;;;;8.20;2.33;;;11.00;65.80;;;;;;2417973;55;20989;-82
2023/02/02 13:35:35;;;;;;;8.48;2.45;;;11.10;65.90;;;;;;2420502;55;21069;-85
2023/02/02 13:38:14;;;;;;;10.57;2.33;;;11.10;65.60;;;;;;2418208;55;21064;-83
2023/02/02 13:40:41;;;;;;;11.30;2.40;;;11.10;65.60;;;;;;2418327;55;21052;-84
2023/02/02 13:44:39;;;;;;;6.68;2.35;;;11.10;65.90;;;;;;2418423;55;20961;-83
2023/02/02 13:47:15;;;;;;;6.80;2.30;;;11.10;65.10;;;;;;2421792;55;20953;-84
2023/02/02 13:49:49;;;;;;;4.57;2.15;;;11.10;65.90;;;;;;2423056;55;20956;-83
2023/02/02 13:56:56;;;;;;;8.95;2.90;;;11.10;65.80;;;;;;2423353;55;20981;-84
2023/02/02 14:00:04;;;;;;;7.10;1.75;;;11.10;65.00;;;;;;2421117;55;20981;-83
2023/02/02 14:02:50;;;;;;;7.75;2.25;;;11.10;65.40;;;;;;2203314;56;21927;-83
2023/02/02 14:05:27;;;;;;;9.82;2.60;;;11.10;65.50;;;;;;2419783;55;21507;-84